createdAt,value
2022-12-06T00:02:12.175Z,2.15
2022-12-06T00:04:38.956Z,2.13
2022-12-06T00:07:05.740Z,2.17
2022-12-06T00:09:33.328Z,2.33
2022-12-06T00:12:00.108Z,1.98
2022-12-06T00:14:27.516Z,2.60
2022-12-06T00:16:54.401Z,2.15
2022-12-06T00:19:24.142Z,2.40
2022-12-06T00:21:51.455Z,2.13
2022-12-06T00:24:21.256Z,2.03
2022-12-06T00:26:49.659Z,2.03
2022-12-06T00:29:23.003Z,1.98
2022-12-06T00:31:50.648Z,2.33
2022-12-06T00:34:17.520Z,2.20
2022-12-06T00:36:44.598Z,2.10
2022-12-06T00:39:14.698Z,1.90
2022-12-06T00:41:42.175Z,2.08
2022-12-06T00:44:09.605Z,2.00
2022-12-06T00:46:37.654Z,2.33
2022-12-06T00:49:06.327Z,1.80
2022-12-06T00:51:34.349Z,2.28
2022-12-06T00:54:01.285Z,2.15
2022-12-06T00:56:28.453Z,1.90
2022-12-06T00:58:55.271Z,2.38
2022-12-06T01:01:28.053Z,2.00
2022-12-06T01:03:59.644Z,2.17
2022-12-06T01:06:30.296Z,2.08
2022-12-06T01:08:59.710Z,2.17
2022-12-06T01:11:27.900Z,2.00
2022-12-06T01:13:55.082Z,2.42
2022-12-06T01:16:25.461Z,1.92
2022-12-06T01:21:22.317Z,1.83
2022-12-06T01:23:49.780Z,2.13
2022-12-06T01:26:28.431Z,1.85
2022-12-06T01:28:55.757Z,2.03
2022-12-06T01:31:22.729Z,1.75
2022-12-06T01:33:49.526Z,1.88
2022-12-06T01:36:21.781Z,1.90
2022-12-06T01:38:56.781Z,2.20
2022-12-06T01:41:25.704Z,1.95
2022-12-06T01:43:53.893Z,2.00
2022-12-06T01:46:29.813Z,2.03
2022-12-06T01:49:16.082Z,1.98
2022-12-06T01:51:57.902Z,2.00
2022-12-06T01:54:25.764Z,1.90
2022-12-06T01:56:55.806Z,1.92
2022-12-06T01:59:24.169Z,1.98
2022-12-06T02:01:51.188Z,2.00
2022-12-06T02:04:19.319Z,1.92
2022-12-06T02:06:47.486Z,1.77
2022-12-06T02:09:16.696Z,1.83
2022-12-06T02:11:43.889Z,1.92
2022-12-06T02:14:15.332Z,1.90
2022-12-06T02:17:08.843Z,1.95
2022-12-06T02:19:56.905Z,1.90
2022-12-06T02:22:26.198Z,1.75
2022-12-06T02:25:33.828Z,1.58
2022-12-06T02:28:28.295Z,1.85
2022-12-06T02:31:20.368Z,1.88
2022-12-06T02:34:02.499Z,1.92
2022-12-06T02:36:51.355Z,1.50
2022-12-06T02:39:47.148Z,2.03
2022-12-06T02:42:26.344Z,2.35
2022-12-06T02:45:04.545Z,1.90
2022-12-06T02:47:35.957Z,2.45
2022-12-06T02:50:08.474Z,1.90
2022-12-06T02:52:39.122Z,1.85
2022-12-06T02:55:08.607Z,1.90
2022-12-06T02:57:55.586Z,1.70
2022-12-06T03:00:45.492Z,2.10
2022-12-06T03:03:36.616Z,1.80
2022-12-06T03:06:03.416Z,1.98
2022-12-06T03:09:10.833Z,2.08
2022-12-06T03:11:37.499Z,1.70
2022-12-06T03:14:14.509Z,2.00
2022-12-06T03:17:04.051Z,1.48
2022-12-06T03:19:31.755Z,2.10
2022-12-06T03:22:07.424Z,2.30
2022-12-06T03:24:38.035Z,1.55
2022-12-06T03:27:09.351Z,2.10
2022-12-06T03:29:41.410Z,1.42
2022-12-06T03:32:09.872Z,1.70
2022-12-06T03:34:43.642Z,1.70
2022-12-06T03:37:14.743Z,2.05
2022-12-06T03:39:52.839Z,1.92
2022-12-06T03:42:20.222Z,2.08
2022-12-06T03:44:47.332Z,1.80
2022-12-06T03:47:32.359Z,1.80
2022-12-06T03:50:03.556Z,2.10
2022-12-06T03:52:33.192Z,1.80
2022-12-06T03:54:59.906Z,2.10
2022-12-06T03:57:26.600Z,1.58
2022-12-06T03:59:53.409Z,1.60
2022-12-06T04:02:20.223Z,1.70
2022-12-06T04:04:46.889Z,2.10
2022-12-06T04:07:13.555Z,1.95
2022-12-06T04:09:41.448Z,1.75
2022-12-06T04:12:08.272Z,1.88
2022-12-06T04:14:34.930Z,1.67
2022-12-06T04:17:01.666Z,2.13
2022-12-06T04:19:28.430Z,2.03
2022-12-06T04:21:55.148Z,1.70
2022-12-06T04:24:22.294Z,1.60
2022-12-06T04:26:48.995Z,1.92
2022-12-06T04:29:15.735Z,1.92
2022-12-06T04:31:42.621Z,2.58
2022-12-06T04:34:10.292Z,2.38
2022-12-06T04:36:38.793Z,2.13
2022-12-06T04:39:06.185Z,2.10
2022-12-06T04:41:33.049Z,2.08
2022-12-06T04:44:00.030Z,2.00
2022-12-06T04:46:26.752Z,2.47
2022-12-06T04:48:53.451Z,2.25
2022-12-06T04:51:20.051Z,2.35
2022-12-06T04:53:46.707Z,2.58
2022-12-06T04:56:13.388Z,2.30
2022-12-06T04:58:40.119Z,2.40
2022-12-06T05:01:06.904Z,2.75
2022-12-06T05:03:33.595Z,3.08
2022-12-06T05:06:00.321Z,3.03
2022-12-06T05:08:27.801Z,2.95
2022-12-06T05:10:54.575Z,2.92
2022-12-06T05:13:21.590Z,3.15
2022-12-06T05:15:56.199Z,3.60
2022-12-06T05:18:23.761Z,3.70
2022-12-06T05:20:51.159Z,3.30
2022-12-06T05:23:18.060Z,3.45
2022-12-06T05:25:44.714Z,2.67
2022-12-06T05:28:11.384Z,3.97
2022-12-06T05:30:38.227Z,3.38
2022-12-06T05:33:04.987Z,3.35
2022-12-06T05:35:31.851Z,3.47
2022-12-06T05:37:58.539Z,3.20
2022-12-06T05:40:25.261Z,3.30
2022-12-06T05:42:52.095Z,3.20
2022-12-06T05:45:18.895Z,3.15
2022-12-06T05:47:45.654Z,3.10
2022-12-06T05:50:12.503Z,2.95
2022-12-06T05:52:39.194Z,3.00
2022-12-06T05:55:06.153Z,3.08
2022-12-06T05:57:32.896Z,3.20
2022-12-06T05:59:59.791Z,2.90
2022-12-06T06:02:26.901Z,3.65
2022-12-06T06:04:53.690Z,3.28
2022-12-06T06:07:20.388Z,3.17
2022-12-06T06:09:47.001Z,2.72
2022-12-06T06:12:13.729Z,3.05
2022-12-06T06:14:40.479Z,3.08
2022-12-06T06:17:07.356Z,3.28
2022-12-06T06:19:34.139Z,3.00
2022-12-06T06:22:00.835Z,2.85
2022-12-06T06:24:27.575Z,2.90
2022-12-06T06:26:54.270Z,3.20
2022-12-06T06:29:21.008Z,2.70
2022-12-06T06:31:47.838Z,2.78
2022-12-06T06:34:14.657Z,3.03
2022-12-06T06:36:45.761Z,2.63
2022-12-06T06:39:13.144Z,2.80
2022-12-06T06:41:39.940Z,3.33
2022-12-06T06:44:06.652Z,2.92
2022-12-06T06:46:33.396Z,2.90
2022-12-06T06:49:00.133Z,3.50
2022-12-06T06:51:26.850Z,2.90
2022-12-06T06:53:53.630Z,3.22
2022-12-06T06:56:20.233Z,3.53
2022-12-06T06:58:47.269Z,3.45
2022-12-06T07:01:20.241Z,3.72
2022-12-06T07:03:47.430Z,3.30
2022-12-06T07:06:14.122Z,3.90
2022-12-06T07:08:41.879Z,3.35
2022-12-06T07:11:10.253Z,3.45
2022-12-06T07:13:38.770Z,4.00
2022-12-06T07:16:07.000Z,3.53
2022-12-06T07:18:34.180Z,3.10
2022-12-06T07:21:04.720Z,3.20
2022-12-06T07:26:29.892Z,3.42
2022-12-06T07:28:56.508Z,3.30
2022-12-06T07:31:28.374Z,3.20
2022-12-06T07:33:59.835Z,3.38
2022-12-06T07:36:29.270Z,3.13
2022-12-06T07:38:57.761Z,3.08
2022-12-06T07:41:27.256Z,2.92
2022-12-06T07:43:55.840Z,3.20
2022-12-06T07:46:22.628Z,2.85
2022-12-06T07:48:49.367Z,3.40
2022-12-06T07:51:16.034Z,3.00
2022-12-06T07:53:42.715Z,2.90
2022-12-06T07:56:09.632Z,3.35
2022-12-06T07:58:36.321Z,2.88
2022-12-06T08:01:04.368Z,3.60
2022-12-06T08:03:31.323Z,3.70
2022-12-06T08:05:57.953Z,3.42
2022-12-06T08:08:28.528Z,3.70
2022-12-06T08:10:59.191Z,3.63
2022-12-06T08:13:26.075Z,3.50
2022-12-06T08:15:52.903Z,3.60
2022-12-06T08:18:19.652Z,3.80
2022-12-06T08:20:46.389Z,3.55
2022-12-06T08:23:14.006Z,3.45
2022-12-06T08:25:40.758Z,3.83
2022-12-06T08:28:07.448Z,3.53
2022-12-06T08:30:34.150Z,3.30
2022-12-06T08:33:00.919Z,3.55
2022-12-06T08:35:27.592Z,4.07
2022-12-06T08:37:54.271Z,3.65
2022-12-06T08:40:21.049Z,3.78
2022-12-06T08:42:48.026Z,3.75
2022-12-06T08:45:14.721Z,3.75
2022-12-06T08:47:41.391Z,4.22
2022-12-06T08:50:08.363Z,3.80
2022-12-06T08:52:37.651Z,3.90
2022-12-06T08:55:04.683Z,3.85
2022-12-06T08:57:32.944Z,3.33
2022-12-06T08:59:59.947Z,3.67
2022-12-06T09:02:26.856Z,3.95
2022-12-06T09:04:53.739Z,3.72
2022-12-06T09:07:20.516Z,3.97
2022-12-06T09:09:47.110Z,4.03
2022-12-06T09:12:13.803Z,3.58
2022-12-06T09:14:40.534Z,3.42
2022-12-06T09:17:07.219Z,3.50
2022-12-06T09:19:33.996Z,3.90
2022-12-06T09:22:00.681Z,3.58
2022-12-06T09:24:27.368Z,3.80
2022-12-06T09:26:54.055Z,3.88
2022-12-06T09:29:20.795Z,4.13
2022-12-06T09:31:48.090Z,3.72
2022-12-06T09:34:15.259Z,3.58
2022-12-06T09:36:49.208Z,4.00
2022-12-06T09:39:21.437Z,2.95
2022-12-06T09:42:17.474Z,4.00
2022-12-06T09:44:46.928Z,4.10
2022-12-06T09:47:13.596Z,3.72
2022-12-06T09:49:51.936Z,3.50
2022-12-06T09:52:38.148Z,3.42
2022-12-06T09:55:29.961Z,3.75
2022-12-06T09:58:12.500Z,3.65
2022-12-06T10:00:47.621Z,4.20
2022-12-06T10:03:55.494Z,4.22
2022-12-06T10:06:25.458Z,3.63
2022-12-06T10:09:12.539Z,3.90
2022-12-06T10:11:48.135Z,4.00
2022-12-06T10:14:53.092Z,3.72
2022-12-06T10:17:36.456Z,3.35
2022-12-06T10:20:08.741Z,3.28
2022-12-06T10:22:55.267Z,3.65
2022-12-06T10:25:24.535Z,3.72
2022-12-06T10:28:25.536Z,3.60
2022-12-06T10:30:56.046Z,3.35
2022-12-06T10:36:05.116Z,3.78
2022-12-06T10:38:37.446Z,3.30
2022-12-06T10:41:31.406Z,3.50
2022-12-06T10:44:37.920Z,3.47
2022-12-06T10:47:04.697Z,3.65
2022-12-06T10:49:43.585Z,3.58
2022-12-06T10:52:20.420Z,3.58
2022-12-06T10:55:02.662Z,3.05
2022-12-06T10:57:36.651Z,3.80
2022-12-06T11:00:16.278Z,3.17
2022-12-06T11:03:20.454Z,3.60
2022-12-06T11:05:54.313Z,3.50
2022-12-06T11:08:30.263Z,3.47
2022-12-06T11:10:59.419Z,3.20
2022-12-06T11:13:49.789Z,3.10
2022-12-06T11:16:26.062Z,3.13
2022-12-06T11:18:56.293Z,2.90
2022-12-06T11:21:27.411Z,4.20
2022-12-06T11:23:54.072Z,6.35
2022-12-06T11:26:52.309Z,5.50
2022-12-06T11:29:19.516Z,4.55
2022-12-06T11:31:50.817Z,4.03
2022-12-06T11:34:23.634Z,3.72
2022-12-06T11:36:58.123Z,3.97
2022-12-06T11:39:27.994Z,4.07
2022-12-06T11:41:57.373Z,4.32
2022-12-06T11:44:31.303Z,3.45
2022-12-06T11:47:02.038Z,3.50
2022-12-06T11:49:41.193Z,3.25
2022-12-06T11:52:13.636Z,3.80
2022-12-06T11:55:03.601Z,3.50
2022-12-06T11:57:38.466Z,3.33
2022-12-06T12:00:23.505Z,3.38
2022-12-06T12:02:52.776Z,3.50
2022-12-06T12:05:22.836Z,3.20
2022-12-06T12:07:57.984Z,3.13
2022-12-06T12:10:37.185Z,3.33
2022-12-06T12:13:13.194Z,2.78
2022-12-06T12:15:50.790Z,2.65
2022-12-06T12:18:25.760Z,2.92
2022-12-06T12:20:54.874Z,3.25
2022-12-06T12:23:38.673Z,2.33
2022-12-06T12:26:07.897Z,3.20
2022-12-06T12:28:35.494Z,2.85
2022-12-06T12:31:22.936Z,2.92
2022-12-06T12:34:28.332Z,2.20
2022-12-06T12:37:05.189Z,2.53
2022-12-06T12:39:39.603Z,2.53
2022-12-06T12:42:31.097Z,2.50
2022-12-06T12:45:00.840Z,2.95
2022-12-06T12:47:27.931Z,2.47
2022-12-06T12:50:18.480Z,2.20
2022-12-06T12:55:19.406Z,2.00
2022-12-06T12:57:49.336Z,2.45
2022-12-06T13:00:17.083Z,2.40
2022-12-06T13:02:47.094Z,2.17
2022-12-06T13:05:33.182Z,1.77
2022-12-06T13:08:18.936Z,2.38
2022-12-06T13:10:51.746Z,2.60
2022-12-06T13:13:29.121Z,1.92
2022-12-06T13:15:58.567Z,2.50
2022-12-06T13:18:34.115Z,2.20
2022-12-06T13:21:19.655Z,2.13
2022-12-06T13:23:51.472Z,2.33
2022-12-06T13:26:36.643Z,1.80
2022-12-06T13:29:29.370Z,2.13
2022-12-06T13:31:59.595Z,2.03
2022-12-06T13:34:40.103Z,2.20
2022-12-06T13:39:54.355Z,1.70
2022-12-06T13:42:45.362Z,2.03
2022-12-06T13:45:50.665Z,2.08
2022-12-06T13:48:25.004Z,1.80
2022-12-06T13:50:53.644Z,1.88
2022-12-06T13:53:23.061Z,1.75
2022-12-06T13:55:57.607Z,1.77
2022-12-06T13:58:25.950Z,2.05
2022-12-06T14:00:54.656Z,2.35
2022-12-06T14:03:21.393Z,1.75
2022-12-06T14:08:20.083Z,2.10
2022-12-06T14:10:47.199Z,1.90
2022-12-06T14:13:20.245Z,1.80
2022-12-06T14:15:51.674Z,1.67
2022-12-06T14:18:28.679Z,1.95
2022-12-06T14:20:57.977Z,1.92
2022-12-06T14:23:31.583Z,2.00
2022-12-06T14:26:16.851Z,1.92
2022-12-06T14:28:43.901Z,1.92
2022-12-06T14:31:29.746Z,1.67
2022-12-06T14:33:57.251Z,1.95
2022-12-06T14:36:30.555Z,2.28
2022-12-06T14:39:14.611Z,1.80
2022-12-06T14:41:41.783Z,2.30
2022-12-06T14:44:17.559Z,1.77
2022-12-06T14:46:46.191Z,2.17
2022-12-06T14:49:22.466Z,1.95
2022-12-06T14:51:51.104Z,1.92
2022-12-06T14:54:26.953Z,2.00
2022-12-06T14:56:54.149Z,1.90
2022-12-06T15:00:01.579Z,2.20
2022-12-06T15:04:48.101Z,2.22
2022-12-06T15:07:38.033Z,2.05
2022-12-06T15:10:18.841Z,1.95
2022-12-06T15:12:45.617Z,1.90
2022-12-06T15:15:41.346Z,1.77
2022-12-06T15:18:13.844Z,1.67
2022-12-06T15:20:40.714Z,1.65
2022-12-06T15:23:26.976Z,1.63
2022-12-06T15:25:53.652Z,1.80
2022-12-06T15:28:20.616Z,1.90
2022-12-06T15:30:48.602Z,1.80
2022-12-06T15:33:21.427Z,2.17
2022-12-06T15:35:48.585Z,2.33
2022-12-06T15:38:15.322Z,1.77
2022-12-06T15:40:45.312Z,1.85
2022-12-06T15:43:32.797Z,2.60
2022-12-06T15:46:02.101Z,2.08
2022-12-06T15:48:30.424Z,2.17
2022-12-06T15:50:58.936Z,1.73
2022-12-06T15:53:27.289Z,2.22
2022-12-06T15:55:54.007Z,2.00
2022-12-06T15:58:20.831Z,2.20
2022-12-06T16:00:47.594Z,2.08
2022-12-06T16:03:14.515Z,2.35
2022-12-06T16:05:41.237Z,1.95
2022-12-06T16:08:08.225Z,2.10
2022-12-06T16:11:03.488Z,1.88
2022-12-06T16:13:21.608Z,1.90
2022-12-06T16:15:48.356Z,2.20
2022-12-06T16:18:15.168Z,1.98
2022-12-06T16:20:42.231Z,2.17
2022-12-06T16:23:14.306Z,2.10
2022-12-06T16:25:41.387Z,2.10
2022-12-06T16:28:08.160Z,2.40
2022-12-06T16:30:36.598Z,2.15
2022-12-06T16:33:07.475Z,2.13
2022-12-06T16:35:34.855Z,1.80
2022-12-06T16:38:01.643Z,2.15
2022-12-06T16:40:28.664Z,2.15
2022-12-06T16:42:55.443Z,2.47
2022-12-06T16:45:22.636Z,2.00
2022-12-06T16:47:50.960Z,2.13
2022-12-06T16:50:23.999Z,2.10
2022-12-06T16:52:51.599Z,2.28
2022-12-06T16:55:18.921Z,2.50
2022-12-06T16:57:46.217Z,2.28
2022-12-06T17:00:14.409Z,2.42
2022-12-06T17:02:41.135Z,2.38
2022-12-06T17:05:08.327Z,2.10
2022-12-06T17:07:36.191Z,2.05
2022-12-06T17:10:03.552Z,2.40
2022-12-06T17:12:30.240Z,1.98
2022-12-06T17:14:56.974Z,2.40
2022-12-06T17:17:23.653Z,1.88
2022-12-06T17:19:50.536Z,1.95
2022-12-06T17:22:17.463Z,2.20
2022-12-06T17:24:44.691Z,2.20
2022-12-06T17:27:12.766Z,2.25
2022-12-06T17:29:39.902Z,2.42
2022-12-06T17:32:07.161Z,2.17
2022-12-06T17:34:33.915Z,2.30
2022-12-06T17:37:00.578Z,2.00
2022-12-06T17:39:28.504Z,2.20
2022-12-06T17:41:56.392Z,2.25
2022-12-06T17:44:23.325Z,2.40
2022-12-06T17:46:50.633Z,2.38
2022-12-06T17:49:20.874Z,2.13
2022-12-06T17:51:48.261Z,2.35
2022-12-06T17:54:15.923Z,2.40
2022-12-06T17:56:44.908Z,2.55
2022-12-06T17:59:14.298Z,2.60
2022-12-06T18:04:30.384Z,2.50
2022-12-06T18:06:57.955Z,2.08
2022-12-06T18:09:24.787Z,2.38
2022-12-06T18:11:51.552Z,2.28
2022-12-06T18:14:18.616Z,2.28
2022-12-06T18:16:46.474Z,2.30
2022-12-06T18:19:18.870Z,2.30
2022-12-06T18:21:46.599Z,2.40
2022-12-06T18:24:25.847Z,2.53
2022-12-06T18:26:54.596Z,2.50
2022-12-06T18:29:23.487Z,2.42
2022-12-06T18:31:51.987Z,2.08
2022-12-06T18:34:19.203Z,2.10
2022-12-06T18:36:46.435Z,2.28
2022-12-06T18:39:16.138Z,2.20
2022-12-06T18:41:44.494Z,2.25
2022-12-06T18:44:11.951Z,2.45
2022-12-06T18:46:39.165Z,2.17
2022-12-06T18:49:06.360Z,2.65
2022-12-06T18:51:35.133Z,2.00
2022-12-06T18:54:03.071Z,1.85
2022-12-06T18:56:30.618Z,2.10
2022-12-06T18:58:58.732Z,2.28
2022-12-06T19:01:29.354Z,2.20
2022-12-06T19:03:58.552Z,2.45
2022-12-06T19:06:27.493Z,2.63
2022-12-06T19:09:14.062Z,1.75
2022-12-06T19:11:43.109Z,1.83
2022-12-06T19:14:16.343Z,2.17
2022-12-06T19:16:54.571Z,1.80
2022-12-06T19:19:24.039Z,2.22
2022-12-06T19:21:52.844Z,1.77
2022-12-06T19:24:23.085Z,1.85
2022-12-06T19:26:54.503Z,1.60
2022-12-06T19:29:21.255Z,1.90
2022-12-06T19:31:48.100Z,1.77
2022-12-06T19:34:48.618Z,1.92
2022-12-06T19:37:15.351Z,1.85
2022-12-06T19:39:42.081Z,1.50
2022-12-06T19:42:09.155Z,1.80
2022-12-06T19:44:35.939Z,1.80
2022-12-06T19:47:02.903Z,1.83
2022-12-06T19:49:29.957Z,1.67
2022-12-06T19:51:56.974Z,1.60
2022-12-06T19:54:29.670Z,1.88
2022-12-06T19:56:58.070Z,2.10
2022-12-06T19:59:32.988Z,2.10
2022-12-06T20:02:02.949Z,1.80
2022-12-06T20:04:36.094Z,1.70
2022-12-06T20:07:03.937Z,2.00
2022-12-06T20:09:31.540Z,1.67
2022-12-06T20:11:59.832Z,1.77
2022-12-06T20:14:28.414Z,1.63
2022-12-06T20:16:55.667Z,1.63
2022-12-06T20:19:22.490Z,1.80
2022-12-06T20:21:52.391Z,1.60
2022-12-06T20:24:24.117Z,1.98
2022-12-06T20:26:52.997Z,2.00
2022-12-06T20:29:20.700Z,1.73
2022-12-06T20:31:51.951Z,1.80
2022-12-06T20:34:19.173Z,1.63
2022-12-06T20:36:46.124Z,2.33
2022-12-06T20:39:27.009Z,1.70
2022-12-06T20:41:54.186Z,1.85
2022-12-06T20:44:21.510Z,1.67
2022-12-06T20:46:49.433Z,1.63
2022-12-06T20:49:16.827Z,1.85
2022-12-06T20:51:48.079Z,1.80
2022-12-06T20:54:18.907Z,1.80
2022-12-06T20:56:45.770Z,2.00
2022-12-06T20:59:12.655Z,1.90
2022-12-06T21:01:41.637Z,2.08
2022-12-06T21:04:12.015Z,2.10
2022-12-06T21:06:39.074Z,1.80
2022-12-06T21:09:06.297Z,1.60
2022-12-06T21:11:33.127Z,1.63
2022-12-06T21:13:59.849Z,2.28
2022-12-06T21:16:32.148Z,1.75
2022-12-06T21:19:07.336Z,2.08
2022-12-06T21:21:36.822Z,1.90
2022-12-06T21:24:09.651Z,1.80
2022-12-06T21:26:37.122Z,2.03
2022-12-06T21:29:04.303Z,1.85
2022-12-06T21:31:33.861Z,2.00
2022-12-06T21:34:01.487Z,1.90
2022-12-06T21:36:28.649Z,2.13
2022-12-06T21:38:56.232Z,1.80
2022-12-06T21:41:23.179Z,2.00
2022-12-06T21:43:50.424Z,2.13
2022-12-06T21:46:20.899Z,1.67
2022-12-06T21:51:23.080Z,1.70
2022-12-06T21:53:50.306Z,1.83
2022-12-06T21:56:22.370Z,1.52
2022-12-06T21:58:49.520Z,1.63
2022-12-06T22:01:19.178Z,1.90
2022-12-06T22:03:50.387Z,2.10
2022-12-06T22:06:17.747Z,1.98
2022-12-06T22:08:45.728Z,2.00
2022-12-06T22:11:18.181Z,1.60
2022-12-06T22:13:46.122Z,2.10
2022-12-06T22:16:14.442Z,1.70
2022-12-06T22:18:45.373Z,1.90
2022-12-06T22:21:17.089Z,2.10
2022-12-06T22:23:44.581Z,2.00
2022-12-06T22:26:15.224Z,1.85
2022-12-06T22:28:41.953Z,1.88
2022-12-06T22:31:14.475Z,1.55
2022-12-06T22:33:41.613Z,1.90
2022-12-06T22:36:10.134Z,1.98
2022-12-06T22:38:37.171Z,1.60
2022-12-06T22:41:04.225Z,1.75
2022-12-06T22:43:31.398Z,1.33
2022-12-06T22:46:09.878Z,1.83
2022-12-06T22:48:37.665Z,2.00
2022-12-06T22:51:30.665Z,1.65
2022-12-06T22:54:02.255Z,2.00
2022-12-06T22:56:29.988Z,1.75
2022-12-06T22:58:58.807Z,1.52
2022-12-06T23:01:28.968Z,1.58
2022-12-06T23:03:55.963Z,1.50
2022-12-06T23:06:25.020Z,1.50
2022-12-06T23:08:52.711Z,1.92
2022-12-06T23:11:25.869Z,1.90
2022-12-06T23:13:54.029Z,1.20
2022-12-06T23:16:23.809Z,1.52
2022-12-06T23:18:51.223Z,1.73
2022-12-06T23:21:24.015Z,1.60
2022-12-06T23:23:53.094Z,1.92
2022-12-06T23:26:22.196Z,1.27
2022-12-06T23:28:49.249Z,1.60
2022-12-06T23:31:27.832Z,2.00
2022-12-06T23:34:00.848Z,1.70
2022-12-06T23:36:30.149Z,1.40
2022-12-06T23:38:56.831Z,1.73
2022-12-06T23:41:26.025Z,1.75
2022-12-06T23:43:54.152Z,1.63
2022-12-06T23:46:23.175Z,1.90
2022-12-06T23:48:53.781Z,1.50
2022-12-06T23:53:54.153Z,1.83
2022-12-06T23:56:22.133Z,2.05
2022-12-06T23:58:50.220Z,1.83
